Time;durP1;ratioP1;P1;durP2;ratioP2;P2;SDS_P1;SDS_P2;PMS_P1;PMS_P2;Temp;Humidity;BMP_temperature;BMP_pressure;BME280_temperature;BME280_humidity;BME280_pressure;Samples;Min_cycle;Max_cycle;Signal;HPM_P1;HPM_P2
2023/10/11 00:02:15;;;;;;;0.90;0.90;;;;;;;16.21;69.89;100211.69;5093361;28;20248;-68
2023/10/11 00:04:51;;;;;;;0.60;0.60;;;;;;;16.23;69.86;100215.03;5093533;28;20234;-68
2023/10/11 00:07:20;;;;;;;0.83;0.83;;;;;;;16.20;69.29;100216.00;5093296;28;20202;-67
2023/10/11 00:09:51;;;;;;;0.97;0.97;;;;;;;16.22;69.50;100218.53;5092189;28;20207;-68
2023/10/11 00:12:19;;;;;;;0.73;0.73;;;;;;;16.28;69.10;100213.94;5093073;28;20211;-68
2023/10/11 00:14:46;;;;;;;0.67;0.67;;;;;;;16.16;68.86;100203.25;5092814;28;20231;-68
2023/10/11 00:17:14;;;;;;;0.70;0.70;;;;;;;16.26;68.67;100209.72;5092766;28;20228;-68
2023/10/11 00:19:42;;;;;;;0.70;0.70;;;;;;;16.27;68.68;100211.44;5093077;28;20219;-68
2023/10/11 00:22:11;;;;;;;0.53;0.53;;;;;;;16.26;68.69;100209.72;5092814;28;20200;-67
2023/10/11 00:24:38;;;;;;;0.80;0.80;;;;;;;16.18;68.49;100197.13;5093051;28;20252;-68
2023/10/11 00:27:04;;;;;;;0.50;0.50;;;;;;;16.30;68.11;100221.66;5093082;28;20257;-68
2023/10/11 00:29:31;;;;;;;0.83;0.80;;;;;;;16.32;68.44;100222.41;5092830;28;20229;-68
2023/10/11 00:31:58;;;;;;;0.60;0.60;;;;;;;16.34;68.49;100220.63;5091610;28;20207;-68
2023/10/11 00:34:25;;;;;;;0.83;0.80;;;;;;;16.39;68.26;100221.28;5092892;28;20663;-68
2023/10/11 00:36:52;;;;;;;0.83;0.83;;;;;;;16.36;68.21;100218.81;5092623;28;20192;-68
2023/10/11 00:39:20;;;;;;;0.80;0.80;;;;;;;16.33;68.64;100213.75;5092724;28;20203;-67
2023/10/11 00:41:49;;;;;;;5.53;1.03;;;;;;;16.36;68.59;100215.38;5092859;28;20195;-68
2023/10/11 00:44:19;;;;;;;0.50;0.50;;;;;;;16.29;68.76;100220.81;5090123;28;20215;-68
2023/10/11 00:46:56;;;;;;;0.80;0.80;;;;;;;16.23;68.96;100220.22;5092627;28;20206;-68
2023/10/11 00:49:34;;;;;;;0.60;0.60;;;;;;;16.31;68.92;100225.09;5090744;28;20191;-68
2023/10/11 00:52:04;;;;;;;0.70;0.70;;;;;;;16.34;69.01;100224.97;5092684;28;20305;-68
2023/10/11 00:54:34;;;;;;;0.60;0.60;;;;;;;16.40;68.85;100230.72;5092277;28;20192;-67
2023/10/11 00:57:01;;;;;;;0.80;0.80;;;;;;;16.49;68.67;100237.28;5092597;28;20686;-68
2023/10/11 00:59:28;;;;;;;0.80;0.80;;;;;;;16.52;68.47;100243.16;5091915;28;20207;-67
2023/10/11 01:01:58;;;;;;;1.67;0.90;;;;;;;16.59;68.33;100242.03;5092341;28;20199;-68
2023/10/11 01:04:33;;;;;;;0.73;0.73;;;;;;;16.64;68.11;100236.69;5092550;28;20243;-68
2023/10/11 01:07:00;;;;;;;0.77;0.77;;;;;;;16.70;67.91;100247.59;5090524;28;20199;-68
2023/10/11 01:09:29;;;;;;;0.90;0.90;;;;;;;16.70;68.25;100247.59;5089606;28;20200;-68
2023/10/11 01:11:57;;;;;;;0.70;0.70;;;;;;;16.70;67.63;100247.59;5091882;28;20226;-68
2023/10/11 01:14:24;;;;;;;0.80;0.80;;;;;;;16.78;67.07;100260.25;5091934;28;20195;-68
2023/10/11 01:16:51;;;;;;;0.73;0.73;;;;;;;16.80;67.13;100254.09;5092119;28;20199;-68
2023/10/11 01:19:18;;;;;;;0.50;0.50;;;;;;;16.84;67.08;100265.16;5092134;28;20199;-68
2023/10/11 01:21:48;;;;;;;0.60;0.60;;;;;;;16.89;67.09;100270.16;5091972;28;20195;-68
2023/10/11 01:24:16;;;;;;;0.50;0.50;;;;;;;16.91;66.87;100268.34;5091649;28;20195;-68
2023/10/11 01:26:43;;;;;;;0.60;0.60;;;;;;;16.92;66.96;100272.63;5091686;28;20202;-69
2023/10/11 01:29:10;;;;;;;0.60;0.60;;;;;;;16.95;66.67;100277.66;5091818;28;20199;-68
2023/10/11 01:31:38;;;;;;;3.27;1.10;;;;;;;16.86;66.46;100252.16;5091895;28;20690;-68
2023/10/11 01:34:05;;;;;;;0.67;0.67;;;;;;;16.88;66.08;100261.53;5091583;28;20211;-68
2023/10/11 01:36:32;;;;;;;0.80;0.80;;;;;;;16.92;65.98;100270.03;5092052;28;20736;-68
2023/10/11 01:39:08;;;;;;;0.80;0.80;;;;;;;16.92;65.91;100277.81;5091675;28;20195;-68
2023/10/11 01:41:36;;;;;;;0.60;0.60;;;;;;;16.90;65.33;100279.63;5091664;28;20202;-68
2023/10/11 01:44:03;;;;;;;2.67;0.90;;;;;;;16.89;65.50;100278.78;5091629;28;20200;-68
2023/10/11 01:46:35;;;;;;;0.70;0.70;;;;;;;16.88;65.38;100286.59;5091569;28;20196;-68
2023/10/11 01:49:03;;;;;;;0.50;0.50;;;;;;;16.89;65.29;100288.28;5091468;28;20199;-68
2023/10/11 01:51:29;;;;;;;0.77;0.77;;;;;;;16.89;64.59;100296.91;5089094;28;20218;-68
2023/10/11 01:53:59;;;;;;;0.50;0.50;;;;;;;16.89;65.21;100296.06;5091465;28;20205;-67
2023/10/11 01:56:30;;;;;;;1.50;1.30;;;;;;;16.88;64.35;100296.94;5091454;28;20209;-68
2023/10/11 01:59:00;;;;;;;0.50;0.50;;;;;;;16.77;64.63;100298.22;5091490;28;20208;-68
2023/10/11 02:01:30;;;;;;;0.50;0.50;;;;;;;16.77;64.20;100305.16;5090678;28;20199;-68
2023/10/11 02:03:59;;;;;;;0.90;0.80;;;;;;;16.69;63.88;100308.09;5090986;28;20199;-68
2023/10/11 02:06:31;;;;;;;1.53;0.70;;;;;;;16.67;64.55;100307.28;5090188;28;20244;-68
2023/10/11 02:08:58;;;;;;;0.47;0.47;;;;;;;16.67;64.47;100314.25;5089034;28;20201;-68
2023/10/11 02:11:25;;;;;;;0.70;0.70;;;;;;;16.61;64.71;100310.13;5094257;28;20207;-69
2023/10/11 02:13:54;;;;;;;0.80;0.80;;;;;;;16.59;64.13;100309.34;5095443;28;20728;-68
2023/10/11 02:16:21;;;;;;;0.60;0.60;;;;;;;16.61;64.38;100320.47;5095090;28;20242;-69
2023/10/11 02:18:51;;;;;;;1.83;0.53;;;;;;;16.63;64.40;100318.69;5095175;28;20207;-69
2023/10/11 02:21:18;;;;;;;0.60;0.60;;;;;;;16.67;64.47;100330.59;5095036;28;20223;-68
2023/10/11 02:23:45;;;;;;;0.87;0.87;;;;;;;16.72;64.50;100328.66;5094847;28;20195;-68
2023/10/11 02:26:13;;;;;;;0.73;0.73;;;;;;;16.75;64.96;100338.91;5095200;28;20256;-67
2023/10/11 02:28:39;;;;;;;0.67;0.67;;;;;;;16.82;64.84;100349.00;5095406;28;20245;-68
2023/10/11 02:31:08;;;;;;;0.70;0.70;;;;;;;16.84;64.79;100347.19;5094751;28;20211;-68
2023/10/11 02:33:35;;;;;;;0.63;0.63;;;;;;;16.69;64.61;100323.63;5095045;28;20217;-68
2023/10/11 02:36:08;;;;;;;0.63;0.63;;;;;;;16.90;65.09;100352.16;5095995;28;20191;-68
2023/10/11 02:38:39;;;;;;;0.77;0.77;;;;;;;16.91;64.46;100353.81;5094949;28;20207;-67
2023/10/11 02:41:07;;;;;;;0.50;0.50;;;;;;;16.89;63.61;100350.44;5093997;28;20211;-68
2023/10/11 02:43:47;;;;;;;0.40;0.40;;;;;;;16.90;63.69;100352.16;5094411;28;20206;-68
2023/10/11 02:46:15;;;;;;;0.50;0.50;;;;;;;16.89;63.37;100350.44;5095079;28;20574;-68
2023/10/11 02:48:45;;;;;;;0.80;0.80;;;;;;;16.91;63.59;100346.03;5094740;28;20203;-68
2023/10/11 02:51:17;;;;;;;0.50;0.50;;;;;;;16.84;63.62;100339.41;5094750;28;20250;-68
2023/10/11 02:53:44;;;;;;;0.67;0.67;;;;;;;16.88;63.54;100353.94;5094996;28;20629;-68
2023/10/11 02:56:11;;;;;;;0.80;0.80;;;;;;;16.87;63.60;100350.50;5094808;28;20210;-68
2023/10/11 02:58:39;;;;;;;0.90;0.90;;;;;;;16.83;63.37;100355.88;5094545;28;20206;-68
2023/10/11 03:01:14;;;;;;;0.47;0.47;;;;;;;16.83;62.77;100361.91;5094570;28;20816;-68
2023/10/11 03:03:42;;;;;;;0.90;0.90;;;;;;;16.76;62.93;100355.28;5094271;28;20202;-68
2023/10/11 03:06:09;;;;;;;0.60;0.60;;;;;;;16.74;62.93;100355.34;5095164;28;20574;-68
2023/10/11 03:08:37;;;;;;;0.50;0.50;;;;;;;16.67;63.07;100351.28;5091802;28;20203;-68
2023/10/11 03:11:05;;;;;;;0.60;0.60;;;;;;;16.76;63.01;100360.47;5094170;28;20209;-68
2023/10/11 03:13:41;;;;;;;0.50;0.50;;;;;;;16.71;62.98;100347.69;5094362;28;20651;-68
2023/10/11 03:16:12;;;;;;;0.50;0.50;;;;;;;16.78;63.25;100359.50;5094409;28;20191;-68
2023/10/11 03:18:40;;;;;;;0.83;0.83;;;;;;;16.77;63.01;100357.81;5094335;28;20191;-67
2023/10/11 03:21:16;;;;;;;0.73;0.60;;;;;;;16.75;62.65;100359.63;5093759;28;20258;-68
2023/10/11 03:23:44;;;;;;;0.47;0.47;;;;;;;16.69;62.28;100359.03;5094147;28;20195;-68
2023/10/11 03:26:16;;;;;;;0.73;0.73;;;;;;;16.69;62.61;100365.03;5094180;28;20671;-68
2023/10/11 03:28:45;;;;;;;0.50;0.50;;;;;;;16.64;62.42;100361.78;5093037;28;20667;-68
2023/10/11 03:31:12;;;;;;;0.53;0.53;;;;;;;16.63;62.31;100375.66;5094260;28;20683;-68
2023/10/11 03:33:40;;;;;;;0.80;0.80;;;;;;;16.62;62.32;100367.94;5094029;28;20637;-68
2023/10/11 03:36:17;;;;;;;1.50;0.60;;;;;;;16.60;62.49;100377.50;5093972;28;20199;-68
2023/10/11 03:38:51;;;;;;;0.50;0.50;;;;;;;16.55;62.49;100372.50;5093763;28;20217;-68
2023/10/11 03:41:25;;;;;;;1.03;0.63;;;;;;;16.46;62.26;100377.16;5094152;28;20203;-68
2023/10/11 03:44:00;;;;;;;0.80;0.80;;;;;;;16.39;62.70;100379.16;5093410;28;20206;-68
2023/10/11 03:46:32;;;;;;;0.90;0.90;;;;;;;16.46;63.05;100378.00;5091235;28;20198;-67
2023/10/11 03:49:13;;;;;;;0.70;0.70;;;;;;;16.49;63.14;100379.63;5093844;28;20249;-67
2023/10/11 03:51:43;;;;;;;0.57;0.57;;;;;;;16.50;62.86;100384.75;5093669;28;20613;-68
2023/10/11 03:54:18;;;;;;;1.83;1.03;;;;;;;16.55;62.96;100382.84;5090888;28;20202;-68
2023/10/11 03:56:51;;;;;;;0.87;0.60;;;;;;;16.55;62.62;100388.03;5093865;28;20199;-68
2023/10/11 03:59:18;;;;;;;0.50;0.50;;;;;;;16.50;62.07;100381.31;5093279;28;20199;-68
2023/10/11 04:01:45;;;;;;;0.60;0.60;;;;;;;16.53;62.54;100384.63;5093573;28;20655;-68
2023/10/11 04:04:12;;;;;;;0.90;0.90;;;;;;;16.52;63.05;100382.94;5093115;28;20207;-68
2023/10/11 04:06:38;;;;;;;0.70;0.70;;;;;;;16.55;62.88;100382.84;5093574;28;20591;-68
2023/10/11 04:09:22;;;;;;;0.40;0.40;;;;;;;16.55;62.71;100387.19;5093632;28;20200;-68
2023/10/11 04:11:55;;;;;;;0.93;0.93;;;;;;;16.57;62.80;100386.25;5091955;28;20215;-68
2023/10/11 04:14:32;;;;;;;1.00;1.00;;;;;;;16.55;63.09;100377.69;5091018;28;20278;-69
2023/10/11 04:17:00;;;;;;;0.60;0.60;;;;;;;16.57;63.01;100380.22;5093688;28;20227;-68
2023/10/11 04:19:31;;;;;;;0.67;0.67;;;;;;;16.60;62.64;100387.88;5093149;28;20203;-68
2023/10/11 04:22:12;;;;;;;0.50;0.50;;;;;;;16.59;62.59;100383.59;5092619;28;20297;-68
2023/10/11 04:24:38;;;;;;;1.13;1.03;;;;;;;16.60;62.58;100386.13;5093107;28;20199;-69
2023/10/11 04:27:45;;;;;;;0.60;0.60;;;;;;;16.61;62.56;100392.97;5092809;28;20202;-69
2023/10/11 04:30:17;;;;;;;0.70;0.70;;;;;;;16.61;63.27;100398.16;5092704;28;20298;-68
2023/10/11 04:32:46;;;;;;;0.70;0.70;;;;;;;16.64;63.72;100392.84;5091769;28;20211;-69
2023/10/11 04:35:21;;;;;;;0.60;0.60;;;;;;;16.65;63.11;100394.53;5090389;28;20199;-69
2023/10/11 04:37:54;;;;;;;0.70;0.70;;;;;;;16.66;62.46;100393.66;5092627;28;20223;-68
2023/10/11 04:40:35;;;;;;;2.00;0.67;;;;;;;16.66;62.14;100401.41;5085644;28;20257;-69
2023/10/11 04:43:08;;;;;;;0.60;0.60;;;;;;;16.66;62.42;100401.41;5092744;28;20290;-69
2023/10/11 04:45:44;;;;;;;0.80;0.80;;;;;;;16.67;61.95;100403.09;5092788;28;20199;-69
2023/10/11 04:48:14;;;;;;;0.70;0.70;;;;;;;16.66;62.15;100411.78;5092568;28;20264;-68
2023/10/11 04:50:45;;;;;;;5.70;0.67;;;;;;;16.68;62.41;100409.97;5092435;28;20196;-69
2023/10/11 04:53:17;;;;;;;0.80;0.80;;;;;;;16.67;62.19;100413.44;5092300;28;20686;-69
2023/10/11 04:55:46;;;;;;;0.83;0.80;;;;;;;16.66;62.30;100413.53;5092318;28;20191;-69
2023/10/11 04:58:39;;;;;;;0.50;0.50;;;;;;;16.63;61.87;100416.22;5092194;28;20207;-69
2023/10/11 05:01:08;;;;;;;0.77;0.77;;;;;;;16.57;61.80;100412.13;5092516;28;20199;-69
2023/10/11 05:03:37;;;;;;;0.70;0.70;;;;;;;16.63;61.92;100417.06;5092145;28;20202;-69
2023/10/11 05:06:13;;;;;;;0.70;0.70;;;;;;;16.60;62.70;100422.38;5092215;28;20202;-69
2023/10/11 05:08:54;;;;;;;0.83;0.83;;;;;;;16.63;63.22;100422.25;5092617;28;20206;-69
2023/10/11 05:11:32;;;;;;;0.57;0.57;;;;;;;16.65;62.88;100425.63;5091493;28;20199;-69
2023/10/11 05:14:07;;;;;;;0.80;0.80;;;;;;;16.69;61.85;100428.94;5092332;28;20218;-69
2023/10/11 05:16:37;;;;;;;1.13;1.13;;;;;;;16.73;61.57;100439.13;5090900;28;20252;-69
2023/10/11 05:19:06;;;;;;;0.67;0.67;;;;;;;16.71;60.91;100433.13;5092165;28;20660;-69
2023/10/11 05:21:38;;;;;;;1.17;1.17;;;;;;;16.69;61.01;100437.53;5091406;28;20576;-69
2023/10/11 05:24:27;;;;;;;4.13;1.70;;;;;;;16.73;60.80;100438.28;5092053;28;20199;-69
2023/10/11 05:27:04;;;;;;;1.10;1.10;;;;;;;16.71;61.28;100440.91;5091904;28;20567;-69
2023/10/11 05:29:36;;;;;;;1.17;1.17;;;;;;;16.73;59.50;100446.91;5091646;28;20226;-69
2023/10/11 05:32:20;;;;;;;1.10;1.00;;;;;;;16.69;59.30;100440.13;5091698;28;20223;-69
2023/10/11 05:34:50;;;;;;;1.23;1.10;;;;;;;16.76;59.19;100454.53;5085644;28;20223;-69
2023/10/11 05:51:00;;;;;;;0.80;0.80;;;;;;;16.75;59.60;100470.97;5090218;28;20210;-65
2023/10/11 05:53:29;;;;;;;0.77;0.60;;;;;;;16.77;59.43;100476.06;5087907;28;20223;-65
2023/10/11 05:55:57;;;;;;;0.77;0.77;;;;;;;16.63;59.41;100474.03;5088907;28;20199;-64
2023/10/11 05:58:24;;;;;;;0.63;0.63;;;;;;;16.73;59.20;100487.47;5091605;28;20203;-64
2023/10/11 06:00:55;;;;;;;0.87;0.87;;;;;;;16.76;59.19;100490.78;5089083;28;21752;-66
2023/10/11 06:03:24;;;;;;;0.60;0.60;;;;;;;16.80;58.78;100487.16;5089013;28;20191;-67
2023/10/11 06:06:26;;;;;;;0.77;0.77;;;;;;;16.85;58.32;100486.16;5091277;28;20202;-67
2023/10/11 06:08:53;;;;;;;0.50;0.50;;;;;;;16.86;57.37;100490.44;5090007;28;20754;-67
2023/10/11 06:11:23;;;;;;;0.63;0.63;;;;;;;16.88;57.11;100493.81;5088032;28;20207;-67
2023/10/11 06:13:52;;;;;;;0.80;0.80;;;;;;;16.83;56.12;100506.09;5091042;28;20224;-67
2023/10/11 06:16:22;;;;;;;0.80;0.80;;;;;;;16.74;57.19;100505.53;5091258;28;20196;-67
2023/10/11 06:18:57;;;;;;;0.50;0.50;;;;;;;16.77;56.24;100502.81;5089795;28;20595;-65
2023/10/11 06:21:30;;;;;;;0.60;0.60;;;;;;;16.83;55.73;100511.28;5089608;28;20633;-67
2023/10/11 06:23:57;;;;;;;0.70;0.70;;;;;;;16.91;56.12;100506.63;5090367;28;20202;-66
2023/10/11 06:26:52;;;;;;;1.40;0.97;;;;;;;16.96;55.03;100502.13;5090042;28;20211;-67
2023/10/11 06:29:17;;;;;;;0.70;0.70;;;;;;;17.02;55.90;100501.91;5087116;28;20199;-67
2023/10/11 06:31:45;;;;;;;0.50;0.50;;;;;;;17.05;54.57;100501.78;5088769;28;20635;-67
2023/10/11 06:34:17;;;;;;;0.60;0.60;;;;;;;16.98;54.52;100495.13;5090288;28;20219;-67
2023/10/11 06:36:48;;;;;;;0.77;0.77;;;;;;;16.89;54.13;100496.34;5084108;28;20200;-66
2023/10/11 06:39:34;;;;;;;0.90;0.90;;;;;;;16.86;54.03;100496.47;5089915;28;20282;-69
2023/10/11 06:42:06;;;;;;;0.80;0.80;;;;;;;16.84;55.11;100498.25;5089242;28;20203;-69
2023/10/11 06:44:34;;;;;;;0.50;0.50;;;;;;;16.77;54.84;100507.16;5090937;28;20218;-68
2023/10/11 06:47:04;;;;;;;0.80;0.80;;;;;;;16.85;55.35;100515.50;5091944;28;20238;-66
2023/10/11 06:49:40;;;;;;;0.80;0.80;;;;;;;16.85;56.03;100504.28;5090722;28;20199;-68
2023/10/11 06:52:07;;;;;;;0.60;0.60;;;;;;;16.89;55.83;100506.72;5089826;28;20219;-67
2023/10/11 06:54:35;;;;;;;0.60;0.60;;;;;;;16.96;55.92;100496.97;5090354;28;20199;-67
2023/10/11 06:57:03;;;;;;;0.73;0.73;;;;;;;17.07;54.42;100507.72;5092892;28;20221;-68
2023/10/11 06:59:32;;;;;;;0.50;0.50;;;;;;;16.99;54.84;100514.97;5094797;28;20700;-68
2023/10/11 07:01:59;;;;;;;0.63;0.63;;;;;;;17.00;55.12;100509.72;5094682;28;20228;-67
2023/10/11 07:04:36;;;;;;;0.50;0.50;;;;;;;17.07;55.39;100510.31;5087546;28;20215;-67
2023/10/11 07:07:07;;;;;;;0.50;0.50;;;;;;;17.06;55.53;100511.25;5093262;28;20207;-69
2023/10/11 07:09:39;;;;;;;0.90;0.90;;;;;;;17.07;54.62;100510.31;5092296;28;20243;-65
2023/10/11 07:12:38;;;;;;;0.67;0.67;;;;;;;17.11;54.04;100517.06;5093653;28;20226;-65
2023/10/11 07:15:07;;;;;;;0.70;0.70;;;;;;;16.96;54.83;100512.50;5094012;28;20212;-67
2023/10/11 07:17:34;;;;;;;0.37;0.37;;;;;;;16.97;54.39;100515.00;5093165;28;20195;-66
2023/10/11 07:20:44;;;;;;;0.70;0.70;;;;;;;17.03;54.59;100513.91;5093488;28;20235;-65
2023/10/11 07:22:50;;;;;;;0.50;0.50;;;;;;;17.14;53.19;100516.94;5090757;28;20297;-66
2023/10/11 07:25:36;;;;;;;0.70;0.70;;;;;;;17.14;52.70;100528.16;5093041;28;20207;-67
2023/10/11 07:28:03;;;;;;;0.80;0.80;;;;;;;17.21;52.87;100518.41;5093099;28;20196;-65
2023/10/11 07:30:37;;;;;;;0.70;0.70;;;;;;;17.28;52.58;100518.13;5090970;28;20225;-65
2023/10/11 07:33:05;;;;;;;0.40;0.40;;;;;;;17.42;53.09;100527.91;5092460;28;20307;-65
2023/10/11 07:35:34;;;;;;;0.90;0.90;;;;;;;17.56;52.37;100530.81;5090805;28;20208;-68
2023/10/11 07:38:01;;;;;;;0.87;0.60;;;;;;;17.48;52.26;100527.66;5092963;28;20272;-65
2023/10/11 07:40:34;;;;;;;0.40;0.40;;;;;;;17.60;51.78;100532.41;5095022;28;20249;-66
2023/10/11 07:43:01;;;;;;;1.17;0.50;;;;;;;17.70;52.01;100533.72;5094463;28;20210;-69
2023/10/11 07:45:28;;;;;;;1.53;0.60;;;;;;;17.84;52.37;100536.56;5094455;28;20632;-63
2023/10/11 07:47:55;;;;;;;0.90;0.90;;;;;;;17.96;52.36;100534.38;5094171;28;20636;-66
2023/10/11 07:50:23;;;;;;;1.07;0.97;;;;;;;18.06;51.60;100535.66;5093530;28;20225;-65
2023/10/11 07:52:51;;;;;;;1.07;1.07;;;;;;;18.15;52.06;100543.06;5093903;28;20678;-66
2023/10/11 07:55:19;;;;;;;1.07;1.07;;;;;;;18.23;53.11;100543.56;5093939;28;20214;-66
2023/10/11 07:57:46;;;;;;;1.03;0.60;;;;;;;18.24;53.53;100537.47;5094036;28;20224;-65
2023/10/11 08:00:18;;;;;;;0.50;0.50;;;;;;;18.26;52.21;100539.06;5093831;28;20204;-65
2023/10/11 08:02:56;;;;;;;0.83;0.83;;;;;;;18.47;52.60;100539.88;5094327;28;20202;-65
2023/10/11 08:05:25;;;;;;;0.70;0.70;;;;;;;18.56;51.65;100539.50;5073882;28;20205;-65
2023/10/11 08:07:55;;;;;;;0.70;0.70;;;;;;;18.54;51.43;100543.94;5072614;28;20266;-65
2023/10/11 08:10:33;;;;;;;0.93;0.93;;;;;;;18.55;51.45;100544.75;5084980;28;20208;-65
2023/10/11 08:13:00;;;;;;;0.70;0.70;;;;;;;18.75;51.86;100544.72;5093698;28;20751;-65
2023/10/11 08:15:27;;;;;;;0.60;0.60;;;;;;;18.69;51.35;100527.66;5093553;28;20676;-65
2023/10/11 08:17:54;;;;;;;1.07;1.07;;;;;;;18.80;51.05;100540.97;5093659;28;20641;-65
2023/10/11 08:20:27;;;;;;;0.60;0.60;;;;;;;18.81;51.47;100545.28;5093206;28;20239;-66
2023/10/11 08:22:57;;;;;;;0.70;0.70;;;;;;;18.86;52.21;100545.94;5093658;28;20219;-66
2023/10/11 08:25:27;;;;;;;0.57;0.57;;;;;;;18.74;52.29;100533.47;5093426;28;20206;-66
2023/10/11 08:28:10;;;;;;;0.70;0.70;;;;;;;18.66;52.45;100547.72;5093326;28;20191;-66
2023/10/11 08:30:38;;;;;;;0.63;0.63;;;;;;;18.64;52.05;100534.78;5091588;28;20205;-70
2023/10/11 08:33:06;;;;;;;0.50;0.50;;;;;;;18.27;51.46;100472.41;5092630;28;20222;-67
2023/10/11 08:35:33;;;;;;;1.17;1.17;;;;;;;18.73;52.09;100533.56;5093435;28;20213;-69
2023/10/11 08:38:04;;;;;;;0.60;0.60;;;;;;;18.75;51.63;100544.72;5073022;28;20263;-66
2023/10/11 08:40:35;;;;;;;0.53;0.53;;;;;;;18.74;52.56;100549.06;5072928;28;20210;-67
2023/10/11 08:43:02;;;;;;;1.10;1.10;;;;;;;18.93;53.89;100546.50;5073022;28;20228;-67
2023/10/11 08:48:51;;;;;;;0.80;0.80;;;;;;;18.95;53.40;100539.44;5078962;28;20188;-66
2023/10/11 08:51:21;;;;;;;0.80;0.80;;;;;;;18.93;52.15;100541.28;5093038;28;20203;-67
2023/10/11 08:53:54;;;;;;;0.80;0.80;;;;;;;18.95;52.05;100549.84;5093423;28;20662;-67
2023/10/11 08:56:23;;;;;;;0.80;0.80;;;;;;;19.02;52.68;100545.22;5093644;28;20207;-67
2023/10/11 08:58:53;;;;;;;0.93;0.93;;;;;;;19.01;53.08;100548.72;5093108;28;20644;-68
2023/10/11 09:01:20;;;;;;;0.80;0.80;;;;;;;18.96;53.03;100540.31;5092939;28;20200;-67
2023/10/11 09:04:06;;;;;;;25.70;9.00;;;;;;;19.13;53.16;100545.53;5092775;28;20289;-68
2023/10/11 09:06:35;;;;;;;1.70;1.60;;;;;;;19.08;52.44;100519.78;5093562;28;20209;-68
2023/10/11 09:09:04;;;;;;;0.80;0.80;;;;;;;19.03;53.08;100547.72;5092754;28;20231;-65
2023/10/11 09:11:32;;;;;;;1.00;0.93;;;;;;;19.12;53.42;100546.47;5093112;28;20205;-67
2023/10/11 09:14:12;;;;;;;2.87;0.70;;;;;;;19.30;52.93;100542.97;5092665;28;20220;-68
2023/10/11 09:16:40;;;;;;;0.70;0.70;;;;;;;19.31;52.86;100552.47;5092879;28;20203;-67
2023/10/11 09:22:47;;;;;;;0.50;0.50;;;;;;;19.50;52.60;100553.31;5082519;28;20232;-67
2023/10/11 09:25:22;;;;;;;0.50;0.50;;;;;;;19.64;52.27;100550.91;5092439;28;20207;-67
2023/10/11 09:27:54;;;;;;;0.60;0.60;;;;;;;19.64;53.07;100556.09;5092832;28;20697;-68
2023/10/11 09:30:22;;;;;;;0.80;0.80;;;;;;;19.51;52.37;100528.16;5092372;28;20280;-69
2023/10/11 09:32:51;;;;;;;0.80;0.80;;;;;;;19.70;52.07;100555.78;5092328;28;20197;-67
2023/10/11 09:35:26;;;;;;;0.90;0.90;;;;;;;19.90;53.15;100553.00;5092403;28;20586;-67
2023/10/11 09:37:54;;;;;;;2.20;0.73;;;;;;;20.03;52.18;100548.06;5092180;28;20197;-68
2023/10/11 09:40:28;;;;;;;0.67;0.67;;;;;;;20.21;52.15;100547.13;5092280;28;20238;-68
2023/10/11 09:43:01;;;;;;;1.10;1.10;;;;;;;20.14;50.59;100548.34;5092218;28;20205;-68
2023/10/11 09:45:41;;;;;;;0.93;0.93;;;;;;;20.08;51.70;100547.81;5092107;28;20206;-68
2023/10/11 09:48:10;;;;;;;0.93;0.93;;;;;;;20.08;52.22;100537.41;5092173;28;20582;-68
2023/10/11 09:50:41;;;;;;;0.60;0.60;;;;;;;20.17;52.45;100540.38;5091912;28;20394;-67
2023/10/11 09:53:10;;;;;;;0.83;0.83;;;;;;;20.26;51.18;100531.22;5092023;28;20198;-67
2023/10/11 09:55:46;;;;;;;1.73;0.80;;;;;;;20.34;52.12;100523.91;5092059;28;20237;-67
2023/10/11 09:58:23;;;;;;;1.03;1.03;;;;;;;20.52;51.82;100520.31;5092029;28;20209;-67
2023/10/11 10:00:59;;;;;;;1.13;1.13;;;;;;;20.64;49.89;100511.88;5091764;28;20211;-67
2023/10/11 10:03:26;;;;;;;0.63;0.63;;;;;;;20.82;50.91;100513.47;5091836;28;20215;-68
2023/10/11 10:06:21;;;;;;;0.80;0.80;;;;;;;21.00;50.06;100511.63;5089591;28;20214;-66
2023/10/11 10:09:23;;;;;;;1.00;1.00;;;;;;;21.13;49.45;100509.22;5081955;28;20227;-68
2023/10/11 10:12:22;;;;;;;3.57;1.47;;;;;;;21.18;48.70;100504.56;5087886;28;20207;-70
2023/10/11 10:15:03;;;;;;;3.80;2.27;;;;;;;21.27;49.16;100504.03;5089034;28;20225;-65
2023/10/11 10:17:30;;;;;;;1.50;1.50;;;;;;;21.32;49.75;100502.88;5090711;28;20214;-69
2023/10/11 10:20:00;;;;;;;3.90;1.90;;;;;;;21.32;49.59;100502.03;5091414;28;20195;-64
2023/10/11 10:22:31;;;;;;;2.73;2.60;;;;;;;21.44;49.46;100501.31;5091137;28;20588;-65
2023/10/11 10:25:19;;;;;;;2.73;2.53;;;;;;;21.52;50.10;100506.91;5091634;28;20195;-66
2023/10/11 10:27:52;;;;;;;2.17;2.07;;;;;;;21.54;48.84;100504.25;5089445;28;20257;-67
2023/10/11 10:30:21;;;;;;;2.43;2.27;;;;;;;21.47;50.47;100495.91;5089920;28;20222;-66
2023/10/11 10:33:24;;;;;;;1.57;1.57;;;;;;;21.44;50.55;100502.16;5092831;28;20214;-66
2023/10/11 10:35:51;;;;;;;1.40;1.40;;;;;;;21.52;48.58;100488.66;5093314;28;20202;-67
2023/10/11 10:38:22;;;;;;;2.50;2.30;;;;;;;21.44;48.79;100485.66;5093712;28;20613;-67
2023/10/11 10:41:26;;;;;;;2.17;2.07;;;;;;;21.58;49.05;100490.09;5093225;28;20233;-67
2023/10/11 10:44:05;;;;;;;0.80;0.80;;;;;;;21.60;48.44;100481.25;5093870;28;20677;-67
2023/10/11 10:46:32;;;;;;;0.87;0.80;;;;;;;21.61;48.63;100472.50;5091269;28;20575;-68
2023/10/11 10:48:58;;;;;;;1.00;1.00;;;;;;;21.67;49.06;100472.13;5093781;28;20686;-68
2023/10/11 10:51:27;;;;;;;1.53;1.10;;;;;;;21.78;48.66;100474.94;5094210;28;20203;-68
2023/10/11 10:53:53;;;;;;;1.63;1.53;;;;;;;21.81;48.95;100469.53;5092705;28;20576;-67
2023/10/11 10:56:21;;;;;;;2.07;1.57;;;;;;;21.86;48.96;100461.44;5093963;28;20205;-67
2023/10/11 10:58:47;;;;;;;1.90;1.80;;;;;;;21.82;48.87;100458.16;5094359;28;20192;-67
2023/10/11 11:01:26;;;;;;;1.83;1.73;;;;;;;21.84;49.33;100443.22;5093724;28;20261;-68
2023/10/11 11:03:56;;;;;;;2.43;2.23;;;;;;;22.03;48.86;100447.41;5094229;28;20195;-68
2023/10/11 11:06:23;;;;;;;0.93;0.93;;;;;;;21.97;48.03;100449.44;5092256;28;20667;-67
2023/10/11 11:08:49;;;;;;;1.00;1.00;;;;;;;21.88;47.01;100439.50;5094305;28;20200;-68
2023/10/11 11:11:20;;;;;;;1.10;1.07;;;;;;;21.98;47.17;100440.66;5094069;28;20204;-68
2023/10/11 11:13:47;;;;;;;1.53;1.10;;;;;;;21.98;47.90;100437.22;5089948;28;20314;-67
2023/10/11 11:16:19;;;;;;;1.17;1.17;;;;;;;21.72;49.55;100427.47;5092369;28;20306;-67
2023/10/11 11:18:45;;;;;;;1.10;1.10;;;;;;;21.77;48.41;100436.72;5093226;28;20718;-68
2023/10/11 11:21:23;;;;;;;0.93;0.93;;;;;;;21.76;48.20;100437.66;5091048;28;20239;-67
2023/10/11 11:23:50;;;;;;;1.10;1.10;;;;;;;21.63;48.67;100433.25;5089748;28;20187;-67
2023/10/11 11:26:17;;;;;;;0.80;0.80;;;;;;;21.78;49.01;100437.53;5093094;28;20257;-67
2023/10/11 11:28:45;;;;;;;1.07;1.07;;;;;;;21.86;47.80;100430.94;5093359;28;20231;-68
2023/10/11 11:31:13;;;;;;;0.70;0.70;;;;;;;22.04;48.68;100430.78;5093796;28;20211;-67
2023/10/11 11:34:05;;;;;;;1.00;1.00;;;;;;;22.01;48.01;100410.06;5089435;28;20207;-68
2023/10/11 11:36:34;;;;;;;0.67;0.67;;;;;;;22.06;47.39;100426.31;5092728;28;20191;-67
2023/10/11 11:41:42;;;;;;;0.53;0.53;;;;;;;22.07;47.43;100420.16;5092778;28;20253;-68
2023/10/11 11:44:17;;;;;;;0.90;0.90;;;;;;;22.16;47.11;100422.22;5093081;28;20230;-68
2023/10/11 11:46:44;;;;;;;0.77;0.77;;;;;;;22.17;46.49;100418.63;5092208;28;20252;-68
2023/10/11 11:49:11;;;;;;;0.57;0.57;;;;;;;22.21;46.88;100409.69;5090166;28;20202;-68
2023/10/11 11:51:38;;;;;;;1.47;0.67;;;;;;;22.13;47.84;100411.94;5092991;28;20249;-67
2023/10/11 11:54:07;;;;;;;0.80;0.80;;;;;;;22.16;47.06;100407.38;5093162;28;20268;-68
2023/10/11 11:56:34;;;;;;;0.80;0.80;;;;;;;22.23;46.99;100407.84;5092941;28;20323;-68
2023/10/11 11:59:00;;;;;;;0.80;0.80;;;;;;;22.30;46.19;100409.09;5092954;28;20199;-68
2023/10/11 12:01:43;;;;;;;1.13;0.93;;;;;;;22.27;46.67;100398.84;5093204;28;20291;-67
2023/10/11 12:04:09;;;;;;;0.67;0.67;;;;;;;22.27;46.00;100398.84;5092593;28;20195;-68
2023/10/11 12:06:38;;;;;;;0.90;0.90;;;;;;;22.26;47.35;100397.19;5093511;28;20207;-69
2023/10/11 12:09:05;;;;;;;0.60;0.60;;;;;;;22.41;47.23;100396.22;5093475;28;20203;-69